번호 제목 글쓴이 날짜 조회 수
공지 스폰서쉽 관련 정책 공지 (19년 5월 20일자) 몬짐레이디 2019.05.21 2539
62843 다이어트시에 탄수화물 꾸준히 챙기시나요? [5] poiu3012 2019.07.09 458
62842 여름 닭가슴살 [14] 살말고근육 2019.07.09 260
62841 몬스터마트 얼라이브 종합비타민 [7] rawc5 2019.07.09 238
62840 간식으로 체중좀 올리려는데 뭐가좋을까요 [8] HHH 2019.07.09 289
62839 현재 복용중인 영양제입니다 지식인분들 한 번 봐주세요 [11] 13% 2019.07.09 260
62838 다이어트 정체기... [6] Buuuulk 2019.07.09 305
62837 단백질을 하루에 몇 g 먹어야 할까요? [11] temporary 2019.07.09 464
62836 감량중인데 시리얼먹어도될까요? [7] file 뜨또1 2019.07.09 296
62835 토마토 개수 [5] 제프송 2019.07.09 229
62834 7월 8일 월요일 영양일지(애슐리) [4] file makimakima 2019.07.08 214
62833 고수님들 다이어트 식단 확인부탁드려요! [9] 미래형몸짱 2019.07.08 248
62832 다이어트 복근 바디프로필... [5] 테드찬 2019.07.08 285
62831 벌크업에 고기는 필수? [9] 두부조림 2019.07.08 390
62830 오랜만에 다시 식단조절하려고 하는데요 [5] Mdew2 2019.07.08 187
62829 식물성 단백질 보충제 질문드립니다.. [5] 윤성민윤성민 2019.07.08 217
62828 대회 5일 남았는데 식단질문입니다 [4] 탈출23 2019.07.08 221
62827 대회후부종 [5] 배륵 2019.07.08 220
62826 닭가슴살 섭취량 질문드립니다~ [6] 상병시인1101 2019.07.08 321
62825 다이어트 식단 피드백좀 부탁드리겠습니다 [6] 2019.07.08 254
62824 7월 7일 일요일 영양일지 [2] file makimakima 2019.07.07 235

커뮤니티 답변 회원 랭킹 TOP 10

  • 1 Thor_ 818 pt
  • 2 아들이야너 648 pt
  • 3 김총경 646 pt
  • 4 Pizza 543 pt
  • 5 151 515 pt
  • 6 크나큰 401 pt
  • 7 makimakima 152 pt
  • 8 superhotdog 140 pt
  • 9 커팅러 134 pt
  • 10 헬스장갈렙 116 pt

MONSTERZYM

ABOUT US

FAMILY

BODYBUILDING SCHOOL